Time;durP1;ratioP1;P1;durP2;ratioP2;P2;SDS_P1;SDS_P2;PMS_P1;PMS_P2;Temp;Humidity;BMP_temperature;BMP_pressure;BME280_temperature;BME280_humidity;BME280_pressure;Samples;Min_cycle;Max_cycle;Signal;HPM_P1;HPM_P2
2021/12/31 00:02:12;;;;;;;2.30;2.10;;;;;;;11.17;83.67;100165.03;4989612;28;101651;-85
2021/12/31 00:04:38;;;;;;;3.55;2.35;;;;;;;11.09;83.32;100150.44;4981405;28;100907;-86
2021/12/31 00:07:04;;;;;;;3.10;2.17;;;;;;;11.15;83.62;100166.88;4959557;28;96895;-86
2021/12/31 00:09:29;;;;;;;7.05;2.42;;;;;;;11.25;83.52;100182.19;4973564;28;96967;-86
2021/12/31 00:11:55;;;;;;;3.60;1.98;;;;;;;11.24;83.65;100179.66;4989923;28;101030;-85
2021/12/31 00:14:21;;;;;;;3.20;1.98;;;;;;;11.24;83.19;100174.41;5005535;28;101581;-85
2021/12/31 00:16:47;;;;;;;6.25;2.35;;;;;;;11.14;83.50;100163.41;4959779;28;96741;-85
2021/12/31 00:19:14;;;;;;;3.47;2.20;;;;;;;11.24;83.38;100177.88;4950451;28;97042;-85
2021/12/31 00:21:42;;;;;;;2.80;2.08;;;;;;;11.25;83.52;100168.22;4993130;28;97611;-85
2021/12/31 00:24:07;;;;;;;6.35;2.60;;;;;;;11.27;83.15;100169.88;4947254;28;101252;-86
2021/12/31 00:26:34;;;;;;;4.00;2.20;;;;;;;11.32;82.93;100175.81;5006931;28;97064;-86
2021/12/31 00:28:59;;;;;;;3.17;1.98;;;;;;;11.30;82.98;100168.91;4990125;28;97078;-85
2021/12/31 00:31:25;;;;;;;4.32;2.35;;;;;;;11.30;83.22;100164.50;4948735;28;101583;-85
2021/12/31 00:33:50;;;;;;;3.67;2.38;;;;;;;11.32;83.20;100169.69;4955615;28;101122;-86
2021/12/31 00:36:16;;;;;;;6.13;2.17;;;;;;;11.32;82.84;100173.19;4988870;28;97152;-85
2021/12/31 00:38:41;;;;;;;3.53;1.98;;;;;;;11.33;83.21;100184.53;4972709;28;96962;-85
2021/12/31 00:41:07;;;;;;;3.05;2.28;;;;;;;11.32;82.70;100175.81;4967772;28;101439;-86
2021/12/31 00:43:33;;;;;;;3.42;2.35;;;;;;;11.30;82.80;100172.38;4975341;28;97858;-85
2021/12/31 00:45:58;;;;;;;2.53;2.00;;;;;;;11.31;82.49;100178.47;4947231;28;96963;-85
2021/12/31 00:48:25;;;;;;;5.28;2.35;;;;;;;11.25;82.47;100171.69;4973661;28;97349;-85
2021/12/31 00:50:51;;;;;;;5.40;2.40;;;;;;;11.34;82.59;100186.25;4954304;28;101175;-86
2021/12/31 00:53:17;;;;;;;3.75;2.30;;;;;;;11.37;82.74;100195.78;4975735;28;98315;-85
2021/12/31 00:55:43;;;;;;;3.33;2.13;;;;;;;11.38;82.30;100198.38;4954430;28;96879;-85
2021/12/31 00:58:08;;;;;;;6.40;2.63;;;;;;;11.39;82.44;100200.06;4969268;28;97920;-85
2021/12/31 01:00:34;;;;;;;3.53;2.35;;;;;;;11.43;82.12;100195.53;4972403;28;97449;-86
2021/12/31 01:03:00;;;;;;;4.00;2.10;;;;;;;11.41;82.60;100197.41;4939837;28;101225;-86
2021/12/31 01:05:25;;;;;;;5.65;2.75;;;;;;;11.36;82.54;100180.94;4975545;28;97176;-85
2021/12/31 01:07:51;;;;;;;7.40;2.58;;;;;;;11.39;82.85;100191.34;4956834;28;97232;-88
2021/12/31 01:10:18;;;;;;;4.13;2.30;;;;;;;11.40;82.25;100185.16;4957474;28;101821;-85
2021/12/31 01:12:44;;;;;;;4.40;2.25;;;;;;;11.43;82.24;100185.91;4957224;28;101700;-86
2021/12/31 01:15:35;;;;;;;3.92;2.13;;;;;;;11.43;82.55;100185.91;4968212;28;97297;-86
2021/12/31 01:18:16;;;;;;;4.18;2.00;;;;;;;11.36;82.18;100175.69;4970970;28;97143;-85
2021/12/31 01:20:42;;;;;;;3.83;2.23;;;;;;;11.45;81.75;100196.34;4990439;28;101821;-86
2021/12/31 01:23:10;;;;;;;3.13;2.20;;;;;;;11.46;81.83;100183.16;4944851;28;100679;-88
2021/12/31 01:25:36;;;;;;;2.53;1.98;;;;;;;11.46;81.96;100187.53;4972294;28;96686;-86
2021/12/31 01:28:02;;;;;;;3.97;2.10;;;;;;;11.46;82.03;100184.91;4991090;28;96840;-85
2021/12/31 01:30:28;;;;;;;4.20;2.25;;;;;;;11.48;81.89;100175.19;5009294;28;99868;-85
2021/12/31 01:32:55;;;;;;;5.05;1.80;;;;;;;11.49;81.87;100190.03;4975468;28;101395;-88
2021/12/31 01:35:21;;;;;;;4.50;2.45;;;;;;;11.45;82.17;100191.94;4966632;28;96838;-85
2021/12/31 01:37:46;;;;;;;5.13;2.33;;;;;;;11.49;82.30;100188.28;4967546;28;96950;-85
2021/12/31 01:40:12;;;;;;;3.55;1.77;;;;;;;11.53;81.82;100189.88;4993310;28;98542;-86
2021/12/31 01:42:38;;;;;;;6.03;2.55;;;;;;;11.51;81.60;100180.31;4963025;28;98348;-85
2021/12/31 01:45:05;;;;;;;3.67;2.40;;;;;;;11.53;81.59;100186.38;4977284;28;97152;-85
2021/12/31 01:47:36;;;;;;;6.05;2.50;;;;;;;11.50;81.91;100183.88;4976746;28;96918;-85
2021/12/31 01:50:07;;;;;;;2.50;1.80;;;;;;;11.50;81.56;100191.78;4970475;28;101760;-85
2021/12/31 01:52:34;;;;;;;3.40;1.90;;;;;;;11.43;81.70;100180.66;4991454;28;98768;-85
2021/12/31 01:55:01;;;;;;;4.97;2.60;;;;;;;11.54;81.39;100204.72;4975807;28;96716;-84
2021/12/31 01:57:27;;;;;;;3.95;2.00;;;;;;;11.55;81.69;100200.34;4992999;28;97446;-86
2021/12/31 01:59:52;;;;;;;2.72;1.90;;;;;;;11.56;81.49;100195.00;4952413;28;101312;-85
2021/12/31 02:02:18;;;;;;;3.92;1.90;;;;;;;11.60;81.90;100205.38;4957779;28;101449;-85
2021/12/31 02:04:44;;;;;;;3.45;1.90;;;;;;;11.57;81.52;100196.69;4958568;28;97124;-85
2021/12/31 02:07:10;;;;;;;3.78;1.98;;;;;;;11.64;81.50;100207.84;4974466;28;97044;-85
2021/12/31 02:09:42;;;;;;;2.60;1.48;;;;;;;11.59;82.17;100195.81;4975055;28;99898;-85
2021/12/31 02:12:08;;;;;;;5.38;1.88;;;;;;;11.64;81.32;100204.38;4958881;28;100004;-85
2021/12/31 02:14:36;;;;;;;3.67;1.65;;;;;;;11.65;81.71;100208.69;4977192;28;97137;-85
2021/12/31 02:17:07;;;;;;;3.90;1.52;;;;;;;11.67;81.37;100212.13;5014476;28;98345;-85
2021/12/31 02:19:33;;;;;;;4.05;2.30;;;;;;;11.63;81.76;100200.84;4982028;28;100768;-85
2021/12/31 02:21:59;;;;;;;3.22;1.60;;;;;;;11.65;81.19;100201.66;5014664;28;98318;-86
2021/12/31 02:24:25;;;;;;;2.03;1.55;;;;;;;11.67;81.53;100201.63;4981645;28;96702;-85
2021/12/31 02:26:50;;;;;;;1.77;1.40;;;;;;;11.70;81.11;100201.50;5014998;28;96958;-86
2021/12/31 02:29:17;;;;;;;3.58;1.30;;;;;;;11.72;80.97;100208.41;5012574;28;97430;-88
2021/12/31 02:31:43;;;;;;;2.03;1.23;;;;;;;11.62;81.25;100193.91;4973416;28;101699;-86
2021/12/31 02:34:09;;;;;;;3.63;1.65;;;;;;;11.71;81.14;100201.41;4974248;28;97057;-84
2021/12/31 02:36:35;;;;;;;2.58;1.15;;;;;;;11.70;81.60;100207.59;4958013;28;97020;-83
2021/12/31 02:39:00;;;;;;;1.63;1.40;;;;;;;11.73;81.30;100196.09;4957652;28;100183;-84
2021/12/31 02:41:26;;;;;;;2.80;1.40;;;;;;;11.72;81.60;100200.50;4958106;28;97568;-84
2021/12/31 02:43:51;;;;;;;1.70;1.25;;;;;;;11.59;81.23;100172.16;4957115;28;97079;-84
2021/12/31 02:46:17;;;;;;;2.15;1.42;;;;;;;11.72;81.26;100187.38;4957937;28;97494;-84
2021/12/31 02:48:43;;;;;;;2.17;1.23;;;;;;;11.74;81.71;100188.13;4960914;28;101213;-84
2021/12/31 02:51:09;;;;;;;2.83;1.40;;;;;;;11.76;81.46;100209.97;4956948;28;101279;-84
2021/12/31 02:53:40;;;;;;;1.65;1.05;;;;;;;11.76;81.66;100199.47;4973987;28;97218;-83
2021/12/31 02:56:08;;;;;;;2.30;1.25;;;;;;;11.79;81.95;100209.00;4957440;28;96886;-84
2021/12/31 02:58:34;;;;;;;2.40;1.20;;;;;;;11.75;81.54;100202.13;4973946;28;101909;-84
2021/12/31 03:01:00;;;;;;;4.63;1.63;;;;;;;11.76;81.79;100199.47;4989844;28;101481;-86
2021/12/31 03:03:28;;;;;;;2.60;1.80;;;;;;;11.74;81.58;100208.31;4957811;28;96763;-85
2021/12/31 03:05:54;;;;;;;2.40;1.52;;;;;;;11.78;81.27;100208.16;5009657;28;97601;-83
2021/12/31 03:08:25;;;;;;;2.13;1.45;;;;;;;11.76;81.86;100203.88;5013001;28;98019;-83
2021/12/31 03:10:52;;;;;;;2.13;1.40;;;;;;;11.82;81.85;100206.25;4997464;28;100943;-83
2021/12/31 03:13:18;;;;;;;2.78;1.20;;;;;;;11.78;81.59;100196.78;5013955;28;97064;-83
2021/12/31 03:15:44;;;;;;;1.73;1.23;;;;;;;11.81;81.46;100199.28;4972172;28;97624;-83
2021/12/31 03:18:10;;;;;;;2.13;1.40;;;;;;;11.79;81.45;100190.59;4972961;28;100016;-84
2021/12/31 03:20:37;;;;;;;3.25;1.02;;;;;;;11.83;82.37;100204.47;4956976;28;101666;-83
2021/12/31 03:23:04;;;;;;;3.85;1.27;;;;;;;11.81;81.69;100190.50;4941164;28;96640;-84
2021/12/31 03:25:29;;;;;;;1.95;1.30;;;;;;;11.81;81.93;100193.13;4973907;28;96804;-84
2021/12/31 03:27:55;;;;;;;3.08;1.30;;;;;;;11.83;81.96;100201.84;4957135;28;101746;-84
2021/12/31 03:30:21;;;;;;;3.67;1.38;;;;;;;11.81;81.91;100196.66;4957299;28;97365;-83
2021/12/31 03:32:46;;;;;;;2.67;1.35;;;;;;;11.72;81.62;100179.47;4956059;28;96972;-83
2021/12/31 03:35:12;;;;;;;3.72;1.35;;;;;;;11.82;81.64;100193.09;4957054;28;97071;-84
2021/12/31 03:37:37;;;;;;;1.27;1.00;;;;;;;11.84;81.75;100193.00;4973736;28;97389;-83
2021/12/31 03:40:04;;;;;;;1.42;1.10;;;;;;;11.84;81.72;100193.00;4956593;28;101666;-86
2021/12/31 03:42:31;;;;;;;4.57;1.70;;;;;;;11.87;81.60;100203.44;4972911;28;97104;-83
2021/12/31 03:44:56;;;;;;;2.83;1.42;;;;;;;11.84;81.61;100193.00;5002415;28;97063;-84
2021/12/31 03:47:22;;;;;;;5.07;1.42;;;;;;;11.89;81.30;100198.97;4978913;28;101178;-84
2021/12/31 03:49:47;;;;;;;3.28;1.70;;;;;;;11.88;81.80;100200.75;4979985;28;100167;-84
2021/12/31 03:52:13;;;;;;;1.88;1.30;;;;;;;11.93;81.51;100208.47;4978868;28;96758;-84
2021/12/31 03:54:38;;;;;;;2.38;1.17;;;;;;;11.86;81.43;100197.31;4996126;28;96881;-83
2021/12/31 03:57:04;;;;;;;1.60;1.20;;;;;;;11.94;80.89;100202.28;4978482;28;101558;-84
2021/12/31 03:59:29;;;;;;;2.38;1.15;;;;;;;11.87;81.28;100188.53;4964956;28;101348;-84
2021/12/31 04:01:55;;;;;;;1.92;0.82;;;;;;;11.89;81.30;100196.34;4972038;28;98105;-85
2021/12/31 04:04:20;;;;;;;1.67;1.00;;;;;;;11.95;80.89;100210.09;4975924;28;97323;-84
2021/12/31 04:06:46;;;;;;;1.38;0.93;;;;;;;11.93;81.27;100203.22;4974878;28;101390;-84
2021/12/31 04:09:11;;;;;;;2.75;1.02;;;;;;;11.82;81.48;100185.19;4975733;28;100683;-83
2021/12/31 04:11:37;;;;;;;1.95;0.90;;;;;;;11.94;81.07;100210.16;4958826;28;97122;-83
2021/12/31 04:14:03;;;;;;;2.30;1.00;;;;;;;11.83;81.16;100186.06;4992780;28;97051;-85
2021/12/31 04:16:30;;;;;;;0.82;0.80;;;;;;;11.95;80.89;100206.63;4959260;28;100981;-84
2021/12/31 04:18:56;;;;;;;1.13;0.80;;;;;;;11.95;81.12;100204.84;4976456;28;97990;-84
2021/12/31 04:21:23;;;;;;;1.40;1.30;;;;;;;11.96;80.79;100208.34;4976153;28;96645;-84
2021/12/31 04:24:08;;;;;;;1.98;1.08;;;;;;;12.01;80.54;100219.50;4960581;28;97071;-84
2021/12/31 04:26:34;;;;;;;1.58;1.20;;;;;;;11.96;80.52;100203.94;4962155;28;100042;-83
2021/12/31 04:29:00;;;;;;;2.85;1.15;;;;;;;12.00;80.61;100213.41;4966261;28;97523;-85
2021/12/31 04:31:26;;;;;;;1.85;0.95;;;;;;;12.03;80.68;100198.41;4974365;28;96860;-83
2021/12/31 04:33:51;;;;;;;1.73;1.20;;;;;;;12.02;80.69;100218.59;4993231;28;97321;-83
2021/12/31 04:36:17;;;;;;;2.65;1.23;;;;;;;12.03;80.27;100212.41;4992405;28;98575;-84
2021/12/31 04:38:42;;;;;;;4.07;1.42;;;;;;;12.05;80.59;100210.59;4992783;28;98334;-83
2021/12/31 04:41:08;;;;;;;2.75;1.58;;;;;;;12.02;80.40;100201.97;4959448;28;96687;-84
2021/12/31 04:43:33;;;;;;;2.72;1.50;;;;;;;12.05;80.46;100209.75;4957336;28;97111;-85
2021/12/31 04:45:59;;;;;;;2.80;1.52;;;;;;;12.08;80.27;100220.13;4975296;28;101659;-84
2021/12/31 04:48:25;;;;;;;3.05;1.20;;;;;;;12.05;80.25;100218.47;4959572;28;99652;-83
2021/12/31 04:50:50;;;;;;;2.75;1.10;;;;;;;12.05;79.95;100215.00;4959439;28;96794;-84
2021/12/31 04:53:16;;;;;;;1.05;0.88;;;;;;;12.01;80.01;100214.25;4959465;28;96623;-84
2021/12/31 04:55:41;;;;;;;1.77;1.10;;;;;;;12.06;80.22;100221.97;4989616;28;97908;-84
2021/12/31 04:58:07;;;;;;;2.88;1.00;;;;;;;11.98;80.03;100203.84;4958806;28;101601;-84
2021/12/31 05:00:33;;;;;;;3.78;1.00;;;;;;;12.08;79.92;100212.25;4959474;28;97011;-84
2021/12/31 05:03:08;;;;;;;1.80;1.08;;;;;;;12.10;79.77;100224.41;4976338;28;97174;-83
2021/12/31 05:05:34;;;;;;;3.67;1.27;;;;;;;12.13;79.62;100224.28;4970928;28;101502;-85
2021/12/31 05:08:00;;;;;;;1.10;0.93;;;;;;;12.14;80.06;100225.97;4941992;28;101784;-84
2021/12/31 05:10:30;;;;;;;2.28;1.20;;;;;;;12.13;80.20;100210.25;4957655;28;97226;-84
2021/12/31 05:12:56;;;;;;;1.40;1.00;;;;;;;12.14;79.70;100214.59;4959902;28;96736;-83
2021/12/31 05:15:27;;;;;;;1.10;0.80;;;;;;;12.13;79.86;100212.88;4958097;28;97994;-83
2021/12/31 05:17:54;;;;;;;1.27;0.80;;;;;;;12.08;79.64;100199.94;4960327;28;99782;-83
2021/12/31 05:20:20;;;;;;;1.92;0.90;;;;;;;12.12;79.78;100201.50;4942216;28;97173;-83
2021/12/31 05:22:46;;;;;;;4.00;1.10;;;;;;;12.18;79.97;100216.19;4981021;28;97435;-83
2021/12/31 05:25:11;;;;;;;1.27;1.05;;;;;;;12.22;79.87;100209.88;4977944;28;101431;-83
2021/12/31 05:27:37;;;;;;;2.38;1.27;;;;;;;12.21;79.58;100206.38;5014949;28;98189;-83
2021/12/31 05:30:04;;;;;;;3.13;1.35;;;;;;;12.16;80.10;100203.09;4998822;28;97075;-83
2021/12/31 05:32:29;;;;;;;1.50;1.10;;;;;;;12.24;79.33;100210.66;4998284;28;97031;-83
2021/12/31 05:34:55;;;;;;;3.22;0.93;;;;;;;12.26;79.14;100208.81;4982048;28;101316;-83
2021/12/31 05:37:21;;;;;;;1.30;0.82;;;;;;;12.24;79.83;100218.53;4981674;28;101583;-83
2021/12/31 05:39:46;;;;;;;1.38;0.98;;;;;;;12.26;79.45;100219.34;4999327;28;96744;-83
2021/12/31 05:42:12;;;;;;;1.90;1.13;;;;;;;12.25;79.20;100215.00;4977784;28;96757;-84
2021/12/31 05:44:37;;;;;;;4.85;1.48;;;;;;;12.24;79.34;100221.19;4979116;28;100836;-84
2021/12/31 05:47:03;;;;;;;3.70;2.42;;;;;;;12.26;79.08;100223.75;4997748;28;96830;-83
2021/12/31 05:49:29;;;;;;;7.03;3.53;;;;;;;12.29;79.54;100213.09;4981437;28;97454;-84
2021/12/31 05:51:55;;;;;;;5.32;2.70;;;;;;;12.30;79.22;100226.19;4998773;28;96815;-85
2021/12/31 05:54:20;;;;;;;2.78;1.42;;;;;;;12.21;79.27;100211.63;4998257;28;97375;-83
2021/12/31 05:56:46;;;;;;;2.38;1.50;;;;;;;12.30;79.04;100230.59;4977939;28;101217;-84
2021/12/31 05:59:12;;;;;;;1.98;1.42;;;;;;;12.20;79.13;100209.94;4958545;28;96659;-84
2021/12/31 06:01:37;;;;;;;2.08;1.17;;;;;;;12.26;78.83;100218.50;4959170;28;97087;-83
2021/12/31 06:04:03;;;;;;;5.00;1.98;;;;;;;12.31;79.39;100221.78;4958392;28;101740;-83
2021/12/31 06:06:28;;;;;;;7.45;2.90;;;;;;;12.31;79.13;100222.66;4941673;28;100956;-84
2021/12/31 06:08:54;;;;;;;12.15;3.53;;;;;;;12.24;79.07;100211.50;4973077;28;97273;-84
2021/12/31 06:11:19;;;;;;;10.68;3.60;;;;;;;12.33;79.12;100220.78;4975637;28;97015;-84
2021/12/31 06:13:49;;;;;;;4.47;1.75;;;;;;;12.33;79.33;100222.56;4958328;28;100048;-83
2021/12/31 06:16:15;;;;;;;2.92;1.33;;;;;;;12.35;78.86;100218.09;4958412;28;101471;-85
2021/12/31 06:18:40;;;;;;;3.53;1.85;;;;;;;12.37;78.80;100227.63;4962310;28;97076;-83
2021/12/31 06:21:06;;;;;;;4.47;1.60;;;;;;;12.38;78.51;100224.06;4994852;28;96953;-83
2021/12/31 06:23:32;;;;;;;4.85;1.65;;;;;;;12.39;78.74;100228.44;4977429;28;101813;-84
2021/12/31 06:25:57;;;;;;;2.88;1.20;;;;;;;12.37;79.15;100230.28;4996072;28;97390;-84
2021/12/31 06:28:23;;;;;;;2.72;1.30;;;;;;;12.23;78.68;100209.81;4994676;28;97230;-84
2021/12/31 06:30:49;;;;;;;3.50;1.40;;;;;;;12.35;78.53;100226.84;4977981;28;96917;-83
2021/12/31 06:33:15;;;;;;;4.20;1.67;;;;;;;12.38;78.74;100236.38;4977618;28;97472;-84
2021/12/31 06:35:41;;;;;;;4.32;1.83;;;;;;;12.41;78.39;100242.38;4975146;28;97629;-84
2021/12/31 06:38:07;;;;;;;3.38;1.70;;;;;;;12.42;78.82;100248.47;4961236;28;97141;-84
2021/12/31 06:40:35;;;;;;;4.20;2.13;;;;;;;12.40;78.13;100245.94;4960970;28;97147;-83
2021/12/31 06:43:00;;;;;;;4.80;1.52;;;;;;;12.34;78.02;100238.31;4977893;28;100535;-83
2021/12/31 06:45:26;;;;;;;2.67;1.40;;;;;;;12.43;77.75;100244.94;4993849;28;97558;-84
2021/12/31 06:47:52;;;;;;;4.00;1.58;;;;;;;12.43;77.96;100255.47;4957770;28;96900;-84
2021/12/31 06:50:18;;;;;;;2.40;1.30;;;;;;;12.36;77.94;100236.47;4960566;28;96847;-84
2021/12/31 06:52:45;;;;;;;2.15;1.50;;;;;;;12.46;78.19;100257.97;4967412;28;99854;-84
2021/12/31 06:55:11;;;;;;;1.73;1.23;;;;;;;12.42;77.77;100254.63;4959452;28;101629;-86
2021/12/31 06:57:36;;;;;;;2.25;1.10;;;;;;;12.39;77.63;100244.22;4969637;28;97499;-84
2021/12/31 07:00:07;;;;;;;4.15;1.10;;;;;;;12.39;77.63;100245.97;4954011;28;97035;-84
2021/12/31 07:02:33;;;;;;;1.95;1.30;;;;;;;12.44;77.16;100249.28;4971296;28;97973;-83
2021/12/31 07:04:59;;;;;;;3.70;1.63;;;;;;;12.36;77.27;100246.13;4975220;28;97678;-84
2021/12/31 07:07:24;;;;;;;2.22;1.52;;;;;;;12.42;77.10;100261.66;4977290;28;97408;-84
2021/12/31 07:09:50;;;;;;;2.67;1.67;;;;;;;12.49;77.17;100267.53;4980397;28;96869;-83
2021/12/31 07:12:15;;;;;;;1.50;1.00;;;;;;;12.35;76.74;100253.16;4960694;28;97910;-84
2021/12/31 07:14:41;;;;;;;2.03;1.30;;;;;;;12.48;76.90;100278.97;4986185;28;101709;-84
2021/12/31 07:17:07;;;;;;;1.58;1.00;;;;;;;12.38;76.25;100253.03;4974980;28;96741;-84
2021/12/31 07:19:32;;;;;;;2.38;1.13;;;;;;;12.45;76.37;100267.66;4957816;28;97319;-83
2021/12/31 07:21:58;;;;;;;2.28;1.10;;;;;;;12.52;76.48;100278.78;4957389;28;101368;-86
2021/12/31 07:24:23;;;;;;;2.25;1.20;;;;;;;12.42;76.31;100273.06;4978681;28;100224;-86
2021/12/31 07:26:49;;;;;;;1.48;0.90;;;;;;;12.37;76.48;100261.84;4981653;28;97286;-84
2021/12/31 07:29:14;;;;;;;3.22;1.10;;;;;;;12.37;76.14;100274.16;4970250;28;97638;-84
2021/12/31 07:31:40;;;;;;;1.15;1.00;;;;;;;12.48;75.81;100289.50;4985552;28;97585;-84
2021/12/31 07:34:05;;;;;;;12.73;1.25;;;;;;;12.44;75.17;100278.25;4980972;28;98408;-85
2021/12/31 07:36:31;;;;;;;2.60;1.00;;;;;;;12.40;75.20;100263.50;4988729;28;96774;-83
2021/12/31 07:39:04;;;;;;;3.33;1.15;;;;;;;12.43;75.00;100282.66;4972448;28;96974;-84
2021/12/31 07:41:29;;;;;;;2.22;1.20;;;;;;;12.53;75.33;100290.16;4975919;28;100519;-85
2021/12/31 07:43:55;;;;;;;2.80;1.15;;;;;;;12.53;75.36;100291.00;4957885;28;101316;-84
2021/12/31 07:46:20;;;;;;;1.92;1.08;;;;;;;12.58;74.86;100304.84;4986471;28;97321;-84
2021/12/31 07:48:46;;;;;;;1.60;1.10;;;;;;;12.59;74.79;100300.44;4970629;28;97170;-84
2021/12/31 07:51:12;;;;;;;1.25;0.80;;;;;;;12.50;74.71;100296.41;4975695;28;97960;-88
2021/12/31 07:53:37;;;;;;;3.90;1.00;;;;;;;12.57;74.26;100308.41;4973898;28;101455;-84
2021/12/31 07:56:03;;;;;;;2.00;0.88;;;;;;;12.61;74.41;100314.41;4990928;28;96670;-84
2021/12/31 07:58:29;;;;;;;1.58;0.90;;;;;;;12.65;74.57;100315.97;4965453;28;96863;-84
2021/12/31 08:00:54;;;;;;;7.45;1.38;;;;;;;12.62;74.26;100308.19;4969845;28;101488;-84
2021/12/31 08:03:20;;;;;;;1.85;1.00;;;;;;;12.71;73.66;100323.59;4987218;28;97320;-84
2021/12/31 08:05:45;;;;;;;1.88;1.05;;;;;;;12.70;73.68;100316.63;4971229;28;97157;-83
2021/12/31 08:08:11;;;;;;;2.30;1.10;;;;;;;12.75;73.65;100312.03;4970209;28;97227;-86
2021/12/31 08:10:38;;;;;;;2.53;1.20;;;;;;;12.78;73.86;100309.25;4957353;28;101499;-84
2021/12/31 08:13:03;;;;;;;3.00;1.10;;;;;;;12.74;73.40;100315.59;4965134;28;97668;-84
2021/12/31 08:15:29;;;;;;;1.92;1.20;;;;;;;12.74;73.60;100301.53;4963676;28;96932;-84
2021/12/31 08:17:55;;;;;;;1.70;1.10;;;;;;;12.63;73.48;100281.81;4953852;28;96925;-85
2021/12/31 08:20:25;;;;;;;2.60;1.42;;;;;;;12.82;73.34;100315.25;4966899;28;97816;-83
2021/12/31 08:22:52;;;;;;;3.70;1.80;;;;;;;12.76;72.86;100292.66;4957254;28;101192;-85
2021/12/31 08:25:18;;;;;;;3.05;1.50;;;;;;;12.84;73.40;100300.25;4976782;28;97447;-84
2021/12/31 08:27:43;;;;;;;1.65;1.40;;;;;;;12.86;73.03;100298.41;4958347;28;97184;-82
2021/12/31 08:30:09;;;;;;;1.88;1.25;;;;;;;12.73;72.85;100277.00;4966888;28;100465;-85
2021/12/31 08:32:35;;;;;;;1.92;1.30;;;;;;;12.87;73.16;100302.75;5002517;28;101195;-82
2021/12/31 08:35:01;;;;;;;1.70;1.15;;;;;;;12.90;72.38;100292.91;4988618;28;97307;-83
2021/12/31 08:37:27;;;;;;;2.15;1.33;;;;;;;12.89;72.89;100293.84;4968177;28;97479;-82
2021/12/31 08:39:53;;;;;;;3.80;1.90;;;;;;;12.94;72.88;100284.88;4971850;28;101787;-80
2021/12/31 08:42:18;;;;;;;4.88;1.70;;;;;;;12.96;72.61;100293.56;4950800;28;101469;-81
2021/12/31 08:44:44;;;;;;;2.30;1.27;;;;;;;12.85;72.18;100278.22;4982008;28;97206;-80
2021/12/31 08:47:09;;;;;;;2.13;1.30;;;;;;;12.91;72.36;100289.38;4952296;28;97544;-88
2021/12/31 08:49:35;;;;;;;3.83;1.58;;;;;;;13.05;72.43;100299.28;4969080;28;101440;-80
2021/12/31 08:52:01;;;;;;;3.90;2.20;;;;;;;13.08;72.03;100293.88;4967608;28;101221;-82
2021/12/31 08:54:26;;;;;;;3.75;1.77;;;;;;;13.07;72.23;100291.31;4962134;28;97085;-86
2021/12/31 08:56:52;;;;;;;3.17;2.10;;;;;;;13.09;72.00;100300.03;4983480;28;96900;-86
2021/12/31 08:59:19;;;;;;;5.85;2.47;;;;;;;13.06;72.34;100287.84;4954313;28;101476;-86
2021/12/31 09:01:45;;;;;;;3.28;1.73;;;;;;;13.09;71.75;100279.78;4973105;28;101246;-86
2021/12/31 09:04:11;;;;;;;1.63;1.20;;;;;;;13.16;71.59;100287.41;4963328;28;97762;-87
2021/12/31 09:06:36;;;;;;;2.92;1.40;;;;;;;13.17;71.39;100287.34;4972111;28;97565;-86
2021/12/31 09:09:03;;;;;;;2.47;1.33;;;;;;;13.19;71.98;100300.44;4969996;28;98456;-86
2021/12/31 09:11:29;;;;;;;3.28;1.02;;;;;;;13.20;71.96;100289.81;4950776;28;100692;-87
2021/12/31 09:13:56;;;;;;;2.15;1.48;;;;;;;13.18;71.68;100285.53;4970177;28;96697;-86
2021/12/31 09:16:21;;;;;;;3.03;1.50;;;;;;;13.23;71.17;100300.22;4986509;28;97544;-85
2021/12/31 09:18:47;;;;;;;5.18;1.40;;;;;;;13.30;71.60;100298.22;4956000;28;100312;-86
2021/12/31 09:21:17;;;;;;;2.15;1.25;;;;;;;13.32;71.18;100297.22;4967430;28;98323;-86
2021/12/31 09:23:43;;;;;;;3.00;1.50;;;;;;;13.33;70.93;100298.94;4965382;28;96839;-87
2021/12/31 09:26:09;;;;;;;1.55;1.13;;;;;;;13.30;70.84;100296.44;4947368;28;96882;-87
2021/12/31 09:28:35;;;;;;;1.98;1.20;;;;;;;13.32;70.99;100289.31;4987073;28;97554;-86
2021/12/31 09:31:00;;;;;;;1.98;1.30;;;;;;;13.38;70.97;100287.31;4980505;28;101333;-86
2021/12/31 09:33:26;;;;;;;2.35;1.40;;;;;;;13.34;70.91;100284.81;4969440;28;97882;-86
2021/12/31 09:35:52;;;;;;;2.75;1.35;;;;;;;13.41;70.51;100284.53;4969048;28;96789;-88
2021/12/31 09:38:17;;;;;;;2.20;1.23;;;;;;;13.38;70.33;100279.41;4948125;28;100637;-87
2021/12/31 09:40:43;;;;;;;1.90;1.10;;;;;;;13.42;70.32;100294.16;4986330;28;98376;-87
2021/12/31 09:43:12;;;;;;;1.90;1.20;;;;;;;13.44;70.44;100289.66;4954024;28;96957;-85
2021/12/31 09:45:39;;;;;;;3.60;1.75;;;;;;;13.47;69.89;100292.19;4980582;28;97022;-85
2021/12/31 09:48:09;;;;;;;3.47;2.08;;;;;;;13.46;70.22;100286.03;4953591;28;101448;-85
2021/12/31 09:50:36;;;;;;;4.57;2.47;;;;;;;13.41;69.97;100277.50;4984486;28;98511;-85
2021/12/31 09:53:02;;;;;;;4.03;2.10;;;;;;;13.51;70.27;100286.69;4955482;28;96876;-85
2021/12/31 09:55:36;;;;;;;4.82;2.58;;;;;;;13.50;69.28;100284.97;4988856;28;96930;-82
2021/12/31 09:58:01;;;;;;;4.50;2.28;;;;;;;13.41;69.62;100280.13;4954457;28;100809;-88
2021/12/31 10:00:27;;;;;;;4.93;2.17;;;;;;;13.45;69.72;100279.06;4978095;28;101304;-81
2021/12/31 10:03:15;;;;;;;3.03;1.88;;;;;;;13.54;69.26;100289.16;4960873;28;98119;-83
2021/12/31 10:05:46;;;;;;;2.90;1.13;;;;;;;13.94;72.18;100283.78;4974709;28;97415;-82
2021/12/31 10:08:39;;;;;;;2.22;1.27;;;;;;;14.77;67.26;100277.84;4974232;28;101299;-83
2021/12/31 10:11:18;;;;;;;2.35;1.52;;;;;;;15.17;64.65;100273.97;4980267;28;101448;-83
2021/12/31 10:13:55;;;;;;;4.43;1.67;;;;;;;15.22;63.83;100273.72;4945637;28;96789;-83
2021/12/31 10:16:28;;;;;;;3.47;2.22;;;;;;;15.37;63.19;100277.31;4976186;28;100347;-83
2021/12/31 10:19:18;;;;;;;5.55;1.92;;;;;;;15.46;62.47;100273.31;4959899;28;101669;-83
2021/12/31 10:21:54;;;;;;;4.25;1.40;;;;;;;15.43;63.25;100274.34;4975274;28;101296;-82
2021/12/31 10:24:25;;;;;;;2.97;1.17;;;;;;;15.59;62.36;100262.00;4981620;28;96746;-82
2021/12/31 10:26:58;;;;;;;2.47;1.10;;;;;;;15.37;62.97;100272.03;4997679;28;96742;-83
2021/12/31 10:29:25;;;;;;;2.35;1.30;;;;;;;15.19;64.03;100263.31;4972448;28;101866;-83
2021/12/31 10:31:52;;;;;;;2.35;1.10;;;;;;;15.08;64.26;100261.25;4957317;28;101543;-83
2021/12/31 10:34:36;;;;;;;2.38;1.20;;;;;;;14.94;64.79;100267.25;4959624;28;97222;-84
2021/12/31 10:37:12;;;;;;;1.70;1.13;;;;;;;14.89;64.87;100253.47;4948911;28;97185;-84
2021/12/31 10:39:39;;;;;;;2.60;1.35;;;;;;;14.88;65.15;100258.81;4986344;28;97552;-83
2021/12/31 10:42:06;;;;;;;2.10;1.10;;;;;;;14.76;65.01;100230.41;4986786;28;97137;-86
2021/12/31 10:44:52;;;;;;;4.13;1.65;;;;;;;14.88;65.28;100259.66;4982548;28;96996;-81
2021/12/31 10:47:22;;;;;;;1.75;1.30;;;;;;;14.72;64.92;100232.34;4962493;28;97226;-84
2021/12/31 10:49:59;;;;;;;3.67;1.55;;;;;;;14.79;64.92;100251.38;4971172;28;101951;-85
2021/12/31 10:52:29;;;;;;;2.17;1.40;;;;;;;14.70;65.23;100250.91;4989784;28;101568;-85
2021/12/31 10:55:04;;;;;;;3.63;1.35;;;;;;;14.58;65.33;100232.22;4993626;28;97249;-84
2021/12/31 10:57:38;;;;;;;1.88;1.20;;;;;;;14.63;65.11;100243.38;4976125;28;96805;-84
2021/12/31 11:00:06;;;;;;;3.47;1.65;;;;;;;14.62;65.68;100260.16;4960129;28;101599;-84
2021/12/31 11:02:35;;;;;;;2.88;1.65;;;;;;;14.61;65.57;100246.13;4964180;28;101742;-84
2021/12/31 11:05:00;;;;;;;4.28;1.75;;;;;;;14.58;65.94;100235.72;4981021;28;97444;-84
2021/12/31 11:07:30;;;;;;;2.25;1.40;;;;;;;14.66;65.75;100240.56;4977402;28;96925;-83
2021/12/31 11:10:01;;;;;;;1.95;1.27;;;;;;;14.44;65.49;100209.13;4965403;28;101749;-86
2021/12/31 11:12:27;;;;;;;2.40;1.80;;;;;;;14.52;65.80;100220.19;4959420;28;99777;-84
2021/12/31 11:14:54;;;;;;;2.22;1.40;;;;;;;14.60;65.53;100238.25;4958435;28;97541;-85
2021/12/31 11:17:20;;;;;;;4.60;1.50;;;;;;;14.65;65.74;100234.44;4952553;28;97228;-84
2021/12/31 11:19:48;;;;;;;4.88;1.55;;;;;;;14.59;65.85;100220.72;4965847;28;101229;-85
2021/12/31 11:22:14;;;;;;;2.70;1.30;;;;;;;14.58;65.72;100219.00;4948610;28;100263;-86